createdAt,value
2022-08-03T00:00:41.282Z,5.43
2022-08-03T00:03:09.364Z,4.13
2022-08-03T00:05:37.747Z,5.70
2022-08-03T00:08:05.926Z,6.07
2022-08-03T00:10:34.901Z,5.97
2022-08-03T00:13:02.775Z,7.05
2022-08-03T00:15:30.840Z,5.50
2022-08-03T00:17:58.778Z,7.90
2022-08-03T00:20:26.657Z,6.90
2022-08-03T00:22:54.617Z,5.57
2022-08-03T00:25:22.520Z,6.05
2022-08-03T00:27:50.501Z,6.32
2022-08-03T00:30:18.891Z,6.72
2022-08-03T00:32:47.800Z,7.45
2022-08-03T00:35:36.416Z,5.65
2022-08-03T00:38:05.677Z,4.75
2022-08-03T00:40:34.481Z,5.57
2022-08-03T00:43:05.389Z,7.07
2022-08-03T00:45:36.657Z,6.93
2022-08-03T00:48:06.549Z,6.32
2022-08-03T00:50:54.923Z,5.28
2022-08-03T00:53:23.184Z,6.85
2022-08-03T00:55:51.535Z,7.32
2022-08-03T00:58:19.630Z,6.80
2022-08-03T01:00:47.575Z,7.20
2022-08-03T01:03:15.572Z,4.65
2022-08-03T01:05:54.026Z,7.00
2022-08-03T01:08:47.703Z,8.20
2022-08-03T01:11:30.474Z,5.03
2022-08-03T01:14:19.323Z,8.52
2022-08-03T01:16:57.556Z,5.10
2022-08-03T01:19:39.908Z,5.53
2022-08-03T01:22:23.708Z,7.72
2022-08-03T01:25:06.037Z,5.28
2022-08-03T01:27:58.209Z,5.95
2022-08-03T01:30:32.497Z,8.40
2022-08-03T01:33:07.591Z,7.78
2022-08-03T01:36:00.438Z,7.38
2022-08-03T01:38:35.097Z,8.52
2022-08-03T01:41:10.789Z,7.53
2022-08-03T01:44:26.898Z,7.15
2022-08-03T01:46:31.458Z,6.90
2022-08-03T01:49:00.733Z,5.60
2022-08-03T01:51:57.772Z,6.75
2022-08-03T01:54:32.034Z,8.18
2022-08-03T01:57:04.906Z,5.82
2022-08-03T01:59:35.819Z,3.40
2022-08-03T02:02:15.649Z,7.15
2022-08-03T02:04:57.697Z,7.60
2022-08-03T02:07:30.875Z,6.55
2022-08-03T02:10:00.844Z,6.65
2022-08-03T02:12:32.464Z,4.95
2022-08-03T02:15:01.780Z,7.78
2022-08-03T02:17:39.362Z,7.53
2022-08-03T02:20:15.229Z,9.40
2022-08-03T02:22:44.641Z,6.10
2022-08-03T02:25:15.557Z,7.43
2022-08-03T02:27:58.433Z,5.20
2022-08-03T02:30:33.388Z,6.45
2022-08-03T02:33:02.132Z,7.63
2022-08-03T02:35:30.744Z,7.05
2022-08-03T02:38:05.538Z,9.25
2022-08-03T02:40:34.022Z,7.28
2022-08-03T02:43:10.622Z,7.13
2022-08-03T02:45:45.869Z,6.18
2022-08-03T02:48:18.022Z,10.38
2022-08-03T02:50:50.089Z,6.95
2022-08-03T02:53:19.825Z,5.43
2022-08-03T02:55:49.001Z,7.38
2022-08-03T02:58:22.883Z,7.13
2022-08-03T03:00:52.369Z,9.38
2022-08-03T03:03:22.166Z,8.38
2022-08-03T03:05:53.496Z,8.30
2022-08-03T03:08:28.781Z,6.22
2022-08-03T03:10:58.741Z,7.30
2022-08-03T03:13:28.740Z,8.48
2022-08-03T03:16:00.575Z,10.40
2022-08-03T03:18:31.040Z,9.80
2022-08-03T03:21:01.118Z,6.97
2022-08-03T03:23:30.629Z,7.18
2022-08-03T03:25:59.059Z,8.82
2022-08-03T03:28:31.072Z,9.45
2022-08-03T03:31:00.732Z,7.25
2022-08-03T03:33:28.842Z,13.82
2022-08-03T03:35:58.624Z,7.78
2022-08-03T03:38:27.062Z,9.32
2022-08-03T03:40:55.350Z,12.98
2022-08-03T03:43:24.829Z,5.90
2022-08-03T03:45:55.796Z,9.38
2022-08-03T03:48:26.209Z,6.40
2022-08-03T03:50:57.542Z,6.45
2022-08-03T03:53:25.939Z,9.45
2022-08-03T03:56:01.954Z,10.15
2022-08-03T03:58:32.723Z,10.43
2022-08-03T04:01:01.723Z,5.75
2022-08-03T04:03:29.923Z,8.70
2022-08-03T04:06:18.229Z,10.20
2022-08-03T04:09:04.708Z,8.90
2022-08-03T04:11:47.575Z,10.05
2022-08-03T04:14:38.088Z,7.70
2022-08-03T04:17:09.363Z,10.32
2022-08-03T04:19:39.180Z,7.97
2022-08-03T04:22:14.071Z,11.52
2022-08-03T04:24:55.682Z,11.77
2022-08-03T04:27:28.867Z,8.93
2022-08-03T04:30:00.688Z,12.77
2022-08-03T04:32:29.950Z,9.82
2022-08-03T04:34:58.247Z,9.95
2022-08-03T04:37:29.229Z,9.85
2022-08-03T04:39:58.535Z,13.02
2022-08-03T04:42:27.737Z,11.02
2022-08-03T04:45:01.026Z,11.05
2022-08-03T04:47:32.567Z,9.50
2022-08-03T04:50:04.936Z,10.27
2022-08-03T04:52:36.268Z,9.38
2022-08-03T04:55:04.583Z,8.80
2022-08-03T04:57:32.464Z,9.75
2022-08-03T05:00:02.945Z,6.63
2022-08-03T05:02:32.096Z,8.27
2022-08-03T05:05:00.604Z,9.27
2022-08-03T05:07:35.438Z,13.95
2022-08-03T05:10:15.759Z,9.10
2022-08-03T05:12:46.305Z,13.82
2022-08-03T05:15:15.086Z,9.90
2022-08-03T05:17:43.322Z,11.13
2022-08-03T05:20:12.173Z,8.57
2022-08-03T05:22:40.058Z,12.35
2022-08-03T05:25:08.382Z,9.15
2022-08-03T05:27:36.489Z,13.20
2022-08-03T05:30:31.265Z,10.80
2022-08-03T05:32:53.835Z,9.93
2022-08-03T05:36:00.784Z,13.80
2022-08-03T05:38:09.763Z,9.63
2022-08-03T05:40:38.588Z,11.63
2022-08-03T05:43:14.914Z,11.43
2022-08-03T05:45:43.444Z,12.73
2022-08-03T05:48:11.412Z,10.27
2022-08-03T05:50:42.767Z,12.63
2022-08-03T05:53:10.886Z,9.57
2022-08-03T05:55:38.905Z,8.93
2022-08-03T05:58:06.882Z,10.43
2022-08-03T06:00:34.836Z,8.73
2022-08-03T06:03:02.914Z,12.43
2022-08-03T06:05:31.550Z,14.65
2022-08-03T06:07:59.644Z,11.23
2022-08-03T06:10:37.822Z,10.43
2022-08-03T06:13:06.188Z,10.00
2022-08-03T06:15:38.206Z,8.55
2022-08-03T06:18:07.835Z,12.90
2022-08-03T06:20:35.712Z,10.00
2022-08-03T06:23:03.694Z,14.13
2022-08-03T06:25:32.225Z,14.15
2022-08-03T06:28:00.547Z,9.98
2022-08-03T06:30:28.401Z,10.23
2022-08-03T06:32:56.429Z,12.27
2022-08-03T06:35:24.599Z,9.85
2022-08-03T06:37:52.617Z,9.90
2022-08-03T06:40:31.530Z,10.02
2022-08-03T06:43:01.046Z,11.45
2022-08-03T06:45:31.766Z,10.15
2022-08-03T06:48:05.901Z,11.73
2022-08-03T06:50:35.129Z,12.85
2022-08-03T06:53:04.388Z,13.25
2022-08-03T06:55:33.121Z,11.07
2022-08-03T06:58:03.226Z,13.98
2022-08-03T07:00:31.617Z,11.13
2022-08-03T07:02:59.512Z,10.55
2022-08-03T07:05:27.524Z,11.07
2022-08-03T07:07:56.965Z,13.27
2022-08-03T07:10:25.301Z,10.30
2022-08-03T07:12:56.348Z,11.30
2022-08-03T07:15:54.643Z,9.55
2022-08-03T07:18:13.336Z,11.32
2022-08-03T07:20:41.380Z,10.68
2022-08-03T07:23:09.888Z,9.75
2022-08-03T07:25:39.832Z,11.48
2022-08-03T07:28:08.304Z,10.07
2022-08-03T07:30:36.168Z,13.05
2022-08-03T07:33:04.170Z,10.88
2022-08-03T07:35:32.046Z,14.45
2022-08-03T07:37:59.854Z,11.93
2022-08-03T07:40:31.718Z,11.80
2022-08-03T07:43:00.516Z,9.45
2022-08-03T07:45:29.180Z,11.43
2022-08-03T07:47:57.193Z,10.77
2022-08-03T07:50:25.389Z,9.70
2022-08-03T07:52:54.009Z,10.15
2022-08-03T07:55:24.091Z,10.80
2022-08-03T07:58:06.721Z,11.82
2022-08-03T08:00:35.197Z,15.73
2022-08-03T08:03:03.958Z,12.57
2022-08-03T08:05:32.252Z,9.43
2022-08-03T08:08:01.060Z,13.65
2022-08-03T08:10:29.200Z,12.93
2022-08-03T08:12:57.539Z,11.00
2022-08-03T08:15:25.442Z,11.00
2022-08-03T08:17:56.590Z,12.82
2022-08-03T08:20:32.927Z,10.20
2022-08-03T08:23:37.687Z,12.75
2022-08-03T08:25:57.543Z,8.60
2022-08-03T08:28:30.199Z,12.15
2022-08-03T08:31:00.206Z,9.80
2022-08-03T08:33:42.130Z,10.75
2022-08-03T08:36:16.069Z,11.95
2022-08-03T08:38:45.068Z,10.25
2022-08-03T08:41:14.583Z,8.73
2022-08-03T08:43:43.214Z,7.90
2022-08-03T08:46:23.629Z,9.98
2022-08-03T08:48:53.526Z,15.63
2022-08-03T08:51:22.518Z,14.80
2022-08-03T08:53:52.992Z,10.95
2022-08-03T08:56:22.744Z,13.60
2022-08-03T08:58:54.634Z,11.90
2022-08-03T09:01:22.764Z,14.48
2022-08-03T09:03:51.310Z,15.82
2022-08-03T09:06:19.276Z,11.07
2022-08-03T09:08:47.175Z,15.68
2022-08-03T09:11:15.034Z,13.27
2022-08-03T09:13:42.906Z,12.00
2022-08-03T09:16:15.922Z,15.00
2022-08-03T09:18:45.889Z,15.20
2022-08-03T09:21:37.775Z,17.75
2022-08-03T09:24:13.139Z,14.55
2022-08-03T09:26:52.226Z,16.65
2022-08-03T09:29:22.719Z,17.52
2022-08-03T09:31:59.503Z,15.10
2022-08-03T09:34:30.525Z,15.00
2022-08-03T09:36:58.511Z,16.13
2022-08-03T09:39:40.417Z,23.15
2022-08-03T09:42:15.678Z,18.30
2022-08-03T09:44:47.081Z,19.67
2022-08-03T09:47:17.656Z,15.95
2022-08-03T09:49:58.780Z,14.98
2022-08-03T09:52:49.469Z,14.55
2022-08-03T09:56:05.201Z,13.55
2022-08-03T09:58:12.676Z,15.63
2022-08-03T10:01:07.868Z,14.73
2022-08-03T10:04:03.999Z,11.85
2022-08-03T10:06:32.964Z,13.70
2022-08-03T10:09:17.309Z,17.70
2022-08-03T10:11:47.027Z,14.48
2022-08-03T10:14:20.900Z,12.95
2022-08-03T10:19:17.850Z,13.13
2022-08-03T10:21:53.644Z,16.52
2022-08-03T10:24:27.304Z,14.18
2022-08-03T10:27:03.641Z,16.98
2022-08-03T10:29:37.552Z,13.48
2022-08-03T10:32:29.214Z,13.45
2022-08-03T10:35:20.044Z,14.13
2022-08-03T10:38:01.028Z,10.15
2022-08-03T10:40:47.922Z,13.48
2022-08-03T10:43:24.609Z,16.30
2022-08-03T10:45:53.055Z,15.10
2022-08-03T10:48:22.422Z,15.52
2022-08-03T10:50:50.774Z,13.77
2022-08-03T10:53:40.447Z,12.50
2022-08-03T10:56:53.289Z,14.18
2022-08-03T10:59:46.974Z,14.25
2022-08-03T11:02:16.516Z,16.85
2022-08-03T11:04:47.444Z,18.05
2022-08-03T11:07:19.505Z,12.48
2022-08-03T11:09:50.262Z,11.73
2022-08-03T11:12:31.058Z,15.02
2022-08-03T11:15:09.178Z,15.18
2022-08-03T11:17:46.338Z,11.15
2022-08-03T11:20:45.757Z,20.67
2022-08-03T11:23:14.893Z,9.95
2022-08-03T11:26:12.811Z,12.68
2022-08-03T11:28:42.268Z,14.50
2022-08-03T11:31:49.673Z,11.02
2022-08-03T11:34:15.214Z,11.02
2022-08-03T11:37:22.503Z,9.90
2022-08-03T11:39:53.265Z,11.43
2022-08-03T11:42:29.034Z,10.60
2022-08-03T11:44:58.816Z,11.90
2022-08-03T11:47:28.748Z,9.18
2022-08-03T11:49:59.189Z,11.77
2022-08-03T11:52:34.228Z,11.30
2022-08-03T11:55:03.019Z,12.13
2022-08-03T11:58:58.395Z,9.85
2022-08-03T12:00:25.841Z,9.35
2022-08-03T12:02:58.492Z,11.25
2022-08-03T12:05:35.283Z,13.20
2022-08-03T12:08:06.624Z,10.43
2022-08-03T12:10:35.089Z,13.63
2022-08-03T12:14:44.982Z,12.13
2022-08-03T12:15:59.393Z,8.80
2022-08-03T12:18:27.613Z,8.55
2022-08-03T12:21:07.296Z,11.77
2022-08-03T12:23:37.796Z,9.48
2022-08-03T12:26:10.105Z,8.15
2022-08-03T12:28:38.664Z,13.38
2022-08-03T12:31:09.213Z,8.25
2022-08-03T12:34:19.114Z,8.27
2022-08-03T12:36:56.173Z,9.75
2022-08-03T12:39:26.353Z,12.13
2022-08-03T12:41:55.747Z,11.05
2022-08-03T12:44:36.828Z,12.60
2022-08-03T12:47:06.915Z,11.95
2022-08-03T12:49:48.653Z,10.23
2022-08-03T12:52:17.970Z,11.38
2022-08-03T12:54:58.576Z,14.32
2022-08-03T12:57:40.536Z,11.60
2022-08-03T13:00:21.514Z,11.35
2022-08-03T13:05:58.173Z,9.73
2022-08-03T13:08:27.294Z,13.15
2022-08-03T13:10:55.752Z,10.60
2022-08-03T13:13:40.201Z,10.98
2022-08-03T13:16:08.185Z,8.15
2022-08-03T13:18:36.206Z,10.40
2022-08-03T13:21:06.100Z,14.98
2022-08-03T13:23:34.037Z,13.43
2022-08-03T13:26:01.876Z,11.55
2022-08-03T13:28:29.718Z,8.05
2022-08-03T13:30:57.865Z,11.63
2022-08-03T13:33:28.373Z,9.18
2022-08-03T13:35:56.676Z,5.63
2022-08-03T13:38:26.919Z,8.00
2022-08-03T13:40:55.335Z,10.52
2022-08-03T13:43:25.086Z,6.60
2022-08-03T13:45:57.758Z,7.10
2022-08-03T13:48:37.009Z,7.57
2022-08-03T13:51:22.232Z,6.70
2022-08-03T13:53:52.376Z,7.32
2022-08-03T13:56:20.211Z,5.00
2022-08-03T13:58:48.292Z,6.70
2022-08-03T14:01:16.406Z,6.32
2022-08-03T14:03:44.639Z,5.47
2022-08-03T14:06:13.748Z,4.88
2022-08-03T14:08:41.688Z,6.35
2022-08-03T14:11:10.069Z,7.97
2022-08-03T14:13:38.475Z,7.90
2022-08-03T14:16:09.861Z,8.52
2022-08-03T14:18:41.422Z,4.47
2022-08-03T14:21:10.086Z,5.45
2022-08-03T14:23:39.223Z,5.45
2022-08-03T14:26:12.008Z,6.68
2022-08-03T14:28:40.293Z,6.32
2022-08-03T14:32:09.914Z,4.25
2022-08-03T14:33:56.500Z,7.15
2022-08-03T14:36:25.391Z,4.45
2022-08-03T14:38:56.107Z,7.47
2022-08-03T14:41:26.136Z,4.25
2022-08-03T14:44:01.151Z,7.53
2022-08-03T14:46:31.105Z,4.05
2022-08-03T14:50:31.596Z,6.03
2022-08-03T14:51:53.500Z,8.00
2022-08-03T14:54:22.660Z,9.60
2022-08-03T14:56:50.626Z,5.97
2022-08-03T14:59:18.690Z,4.95
2022-08-03T15:02:06.262Z,4.13
2022-08-03T15:04:36.866Z,7.55
2022-08-03T15:07:04.806Z,5.75
2022-08-03T15:09:33.012Z,4.22
2022-08-03T15:12:01.025Z,5.15
2022-08-03T15:14:33.222Z,5.13
2022-08-03T15:17:02.848Z,7.05
2022-08-03T15:20:02.117Z,3.85
2022-08-03T15:22:20.813Z,7.10
2022-08-03T15:24:53.793Z,6.10
2022-08-03T15:27:22.312Z,6.22
2022-08-03T15:30:08.133Z,6.72
2022-08-03T15:32:38.125Z,4.45
2022-08-03T15:35:06.972Z,5.18
2022-08-03T15:37:34.848Z,5.15
2022-08-03T15:40:03.621Z,4.43
2022-08-03T15:42:33.137Z,9.15
2022-08-03T15:45:00.977Z,4.78
2022-08-03T15:47:28.905Z,4.75
2022-08-03T15:49:56.856Z,5.00
2022-08-03T15:52:25.008Z,5.68
2022-08-03T15:54:52.877Z,4.00
2022-08-03T15:57:22.547Z,5.13
2022-08-03T15:59:50.944Z,4.40
2022-08-03T16:02:18.965Z,5.38
2022-08-03T16:04:46.933Z,5.00
2022-08-03T16:07:16.023Z,6.30
2022-08-03T16:09:44.401Z,4.25
2022-08-03T16:12:16.205Z,5.28
2022-08-03T16:14:52.981Z,5.50
2022-08-03T16:17:22.688Z,7.82
2022-08-03T16:19:54.762Z,6.05
2022-08-03T16:22:24.495Z,5.53
2022-08-03T16:24:54.004Z,4.53
2022-08-03T16:27:56.517Z,6.47
2022-08-03T16:30:11.751Z,4.55
2022-08-03T16:32:39.808Z,3.67
2022-08-03T16:35:08.799Z,4.40
2022-08-03T16:37:39.067Z,5.97
2022-08-03T16:40:17.270Z,3.60
2022-08-03T16:42:47.733Z,3.30
2022-08-03T16:45:15.669Z,7.03
2022-08-03T16:47:43.816Z,4.60
2022-08-03T16:50:19.122Z,5.30
2022-08-03T16:52:50.717Z,4.38
2022-08-03T16:55:48.921Z,3.85
2022-08-03T16:58:07.322Z,6.60
2022-08-03T17:00:41.880Z,6.15
2022-08-03T17:03:19.160Z,3.78
2022-08-03T17:05:50.115Z,3.33
2022-08-03T17:08:26.237Z,4.18
2022-08-03T17:10:56.900Z,5.65
2022-08-03T17:13:38.794Z,5.97
2022-08-03T17:16:10.616Z,4.63
2022-08-03T17:18:47.564Z,6.95
2022-08-03T17:21:17.721Z,4.93
2022-08-03T17:24:01.663Z,7.05
2022-08-03T17:26:31.206Z,2.65
2022-08-03T17:29:11.203Z,4.78
2022-08-03T17:31:48.700Z,6.03
2022-08-03T17:34:27.634Z,5.50
2022-08-03T17:37:04.525Z,7.15
2022-08-03T17:39:57.595Z,5.35
2022-08-03T17:42:30.678Z,6.28
2022-08-03T17:45:03.857Z,6.35
2022-08-03T17:50:27.953Z,4.40
2022-08-03T17:53:07.114Z,5.18
2022-08-03T17:55:57.534Z,6.30
2022-08-03T17:58:59.474Z,7.40
2022-08-03T18:02:12.289Z,4.70
2022-08-03T18:05:16.499Z,7.75
2022-08-03T18:07:59.526Z,4.88
2022-08-03T18:10:36.385Z,5.65
2022-08-03T18:13:30.072Z,6.28
2022-08-03T18:16:05.675Z,4.88
2022-08-03T18:18:44.832Z,5.30
2022-08-03T18:21:19.684Z,4.35
2022-08-03T18:24:00.332Z,6.00
2022-08-03T18:26:31.422Z,4.47
2022-08-03T18:29:05.583Z,4.78
2022-08-03T18:32:03.265Z,4.57
2022-08-03T18:34:33.349Z,5.82
2022-08-03T18:39:58.181Z,4.90
2022-08-03T18:42:32.313Z,4.93
2022-08-03T18:45:56.318Z,5.07
2022-08-03T18:48:20.672Z,4.63
2022-08-03T18:51:09.720Z,6.72
2022-08-03T18:54:04.125Z,5.90
2022-08-03T18:56:55.764Z,7.25
2022-08-03T18:59:32.189Z,4.18
2022-08-03T19:02:30.186Z,6.43
2022-08-03T19:05:08.053Z,5.85
2022-08-03T19:07:41.393Z,4.65
2022-08-03T19:10:11.221Z,6.57
2022-08-03T19:12:53.077Z,5.55
2022-08-03T19:15:36.734Z,5.57
2022-08-03T19:18:11.229Z,5.68
2022-08-03T19:20:40.090Z,8.80
2022-08-03T19:23:11.420Z,4.80
2022-08-03T19:25:43.472Z,6.05
2022-08-03T19:28:11.688Z,7.75
2022-08-03T19:30:53.261Z,6.55
2022-08-03T19:33:25.706Z,5.75
2022-08-03T19:35:58.348Z,4.05
2022-08-03T19:38:34.541Z,6.05
2022-08-03T19:43:53.907Z,6.85
2022-08-03T19:46:31.114Z,4.75
2022-08-03T19:51:58.893Z,5.80
2022-08-03T19:54:29.322Z,10.57
2022-08-03T19:57:01.786Z,8.75
2022-08-03T19:59:50.290Z,4.47
2022-08-03T20:02:26.615Z,6.18
2022-08-03T20:04:59.975Z,5.47
2022-08-03T20:07:30.965Z,4.25
2022-08-03T20:10:01.456Z,5.15
2022-08-03T20:12:38.755Z,8.57
2022-08-03T20:15:09.280Z,9.30
2022-08-03T20:17:57.125Z,5.75
2022-08-03T20:20:38.197Z,6.35
2022-08-03T20:23:14.052Z,8.02
2022-08-03T20:25:57.142Z,7.70
2022-08-03T20:28:35.903Z,9.65
2022-08-03T20:31:32.444Z,7.45
2022-08-03T20:34:09.392Z,8.15
2022-08-03T20:36:41.439Z,8.32
2022-08-03T20:39:10.618Z,8.63
2022-08-03T20:41:43.567Z,9.23
2022-08-03T20:44:17.079Z,7.10
2022-08-03T20:47:00.225Z,12.40
2022-08-03T20:49:29.334Z,6.93
2022-08-03T20:52:18.461Z,11.18
2022-08-03T20:54:56.447Z,7.97
2022-08-03T20:57:28.801Z,8.07
2022-08-03T21:00:09.136Z,8.07
2022-08-03T21:02:40.777Z,8.50
2022-08-03T21:05:10.836Z,12.35
2022-08-03T21:08:06.934Z,6.18
2022-08-03T21:10:40.716Z,10.32
2022-08-03T21:12:55.172Z,5.03
2022-08-03T21:13:05.448Z,6.40
2022-08-03T21:16:11.962Z,6.43
2022-08-03T21:18:44.875Z,10.25
2022-08-03T21:21:17.234Z,8.25
2022-08-03T21:23:50.229Z,12.00
2022-08-03T21:26:20.929Z,9.82
2022-08-03T21:28:51.542Z,8.77
2022-08-03T21:31:25.484Z,8.77
2022-08-03T21:33:56.652Z,10.07
2022-08-03T21:36:28.207Z,11.18
2022-08-03T21:38:57.809Z,10.43
2022-08-03T21:41:28.978Z,11.35
2022-08-03T21:43:58.006Z,7.72
2022-08-03T21:46:30.872Z,11.20
2022-08-03T21:50:05.893Z,11.13
2022-08-03T21:51:58.696Z,8.80
2022-08-03T21:54:47.040Z,7.30
2022-08-03T21:57:38.475Z,9.13
2022-08-03T22:00:09.348Z,10.73
2022-08-03T22:02:44.850Z,8.43
2022-08-03T22:05:29.195Z,13.40
2022-08-03T22:08:13.552Z,14.07
2022-08-03T22:10:45.015Z,8.63
2022-08-03T22:13:15.225Z,7.60
2022-08-03T22:15:43.419Z,7.88
2022-08-03T22:18:11.417Z,10.27
2022-08-03T22:20:39.464Z,11.93
2022-08-03T22:23:08.307Z,8.27
2022-08-03T22:25:39.402Z,10.65
2022-08-03T22:28:15.331Z,7.90
2022-08-03T22:30:43.656Z,6.78
2022-08-03T22:33:14.544Z,9.18
2022-08-03T22:35:49.479Z,8.45
2022-08-03T22:38:18.725Z,8.82
2022-08-03T22:40:51.156Z,7.43
2022-08-03T22:43:24.243Z,7.47
2022-08-03T22:46:07.618Z,11.05
2022-08-03T22:51:10.045Z,9.93
2022-08-03T22:53:41.014Z,7.40
2022-08-03T22:56:09.293Z,9.68
2022-08-03T22:58:38.907Z,12.07
2022-08-03T23:01:08.986Z,10.55
2022-08-03T23:03:59.632Z,11.48
2022-08-03T23:06:37.392Z,12.80
2022-08-03T23:09:11.229Z,8.68
2022-08-03T23:11:45.188Z,10.63
2022-08-03T23:14:18.114Z,8.35
2022-08-03T23:16:47.507Z,10.38
2022-08-03T23:19:25.787Z,11.05
2022-08-03T23:22:02.890Z,12.45
2022-08-03T23:24:39.489Z,10.77
2022-08-03T23:27:09.567Z,12.07
2022-08-03T23:29:44.373Z,9.25
2022-08-03T23:32:14.575Z,10.73
2022-08-03T23:35:03.681Z,6.82
2022-08-03T23:37:33.384Z,11.45
2022-08-03T23:40:30.863Z,12.88
2022-08-03T23:43:00.183Z,12.10
2022-08-03T23:45:29.135Z,8.73
2022-08-03T23:47:57.313Z,9.82
2022-08-03T23:50:27.780Z,9.70
2022-08-03T23:53:18.643Z,6.15
2022-08-03T23:56:19.344Z,6.60
2022-08-03T23:58:47.083Z,6.45
